AFR202 LFPG-ZBAA
Flight info
| Callsign | AFR202 |
|---|---|
| Flight time | N/A |
| Altitude | 37000 |
| Route | RANUX DCT VALEK DCT LIPNI DCT LIMGO DCT DINKU DCT AKIMA DCT TEGRI DCT UDROS DCT ABSAX UN743 GAKSU UT310 SIN DCT DELEL/N0492F390 DCT REBLO DCT MATAL T916 SUBUT M747 LUSAL N199 RASAM L88 METKA B476 TIMGA A480 OTBOR/K0898F390 N147 ELAHA Z621 ARBOL M610 TIRBA/K0895F410 M610 RULAD/K0895S1250 A343 POSOT B215 FKG W188 LIKMI W270 DKO W69 GUVBA GUVBA6J |
| Aircraft | A359/H-SDE2E3GHIJ3J4J5LM1ORWXY/LB1D1 |
Departure
| Time | 2026-05-07 19:40 |
|---|---|
| Airport | Charles de Gaulle International Airport (LFPG) |
Arrival
| Time | N/A |
|---|---|
| Airport | Beijing Capital International Airport (ZBAA) |
| Time | Latitude | Longitude | Altitude | Speed | Heading |
|---|---|---|---|---|---|
| 2026-05-07 19:08 | 49.00155 | 2.58115 | 360 ft | 0 kts | 356° |
| 2026-05-07 19:27 | 49.00153 | 2.58115 | 360 ft | 2 kts | 356° |
| 2026-05-07 19:27 | 49.00142 | 2.58117 | 368 ft | 2 kts | 356° |
| 2026-05-07 19:27 | 49.00131 | 2.58118 | 367 ft | 2 kts | 356° |
| 2026-05-07 19:28 | 49.00120 | 2.58119 | 366 ft | 2 kts | 356° |
| 2026-05-07 19:28 | 49.00104 | 2.58125 | 365 ft | 3 kts | 326° |
| 2026-05-07 19:28 | 49.00092 | 2.58144 | 368 ft | 3 kts | 299° |
| 2026-05-07 19:28 | 49.00086 | 2.58169 | 363 ft | 3 kts | 264° |
| 2026-05-07 19:29 | 49.00086 | 2.58171 | 363 ft | 0 kts | 260° |
| 2026-05-07 19:29 | 49.00085 | 2.58160 | 362 ft | 0 kts | 263° |
| 2026-05-07 19:34 | 49.00085 | 2.58159 | 362 ft | 1 kts | 263° |
| 2026-05-07 19:35 | 49.00082 | 2.58033 | 365 ft | 22 kts | 272° |
| 2026-05-07 19:35 | 49.00066 | 2.57802 | 369 ft | 10 kts | 261° |
| 2026-05-07 19:35 | 49.00011 | 2.57736 | 366 ft | 19 kts | 186° |
| 2026-05-07 19:35 | 48.99993 | 2.57727 | 367 ft | 1 kts | 210° |
| 2026-05-07 19:36 | 48.99981 | 2.57675 | 367 ft | 13 kts | 253° |
| 2026-05-07 19:36 | 48.99967 | 2.57459 | 363 ft | 28 kts | 265° |
| 2026-05-07 19:36 | 48.99948 | 2.57096 | 368 ft | 41 kts | 265° |
| 2026-05-07 19:36 | 48.99927 | 2.56710 | 366 ft | 31 kts | 265° |
| 2026-05-07 19:37 | 48.99909 | 2.56374 | 365 ft | 34 kts | 265° |
| 2026-05-07 19:37 | 48.99892 | 2.56037 | 360 ft | 15 kts | 268° |
| 2026-05-07 19:37 | 48.99899 | 2.55887 | 368 ft | 9 kts | 277° |
| 2026-05-07 19:37 | 48.99862 | 2.55796 | 367 ft | 13 kts | 200° |
| 2026-05-07 19:38 | 48.99755 | 2.55807 | 365 ft | 18 kts | 177° |
| 2026-05-07 19:38 | 48.99655 | 2.55818 | 366 ft | 16 kts | 176° |
| 2026-05-07 19:38 | 48.99606 | 2.55925 | 364 ft | 16 kts | 91° |
| 2026-05-07 19:38 | 48.99607 | 2.55955 | 360 ft | 0 kts | 87° |
| 2026-05-07 19:39 | 48.99614 | 2.56102 | 369 ft | 38 kts | 85° |
| 2026-05-07 19:39 | 48.99636 | 2.56514 | 363 ft | 77 kts | 85° |
| 2026-05-07 19:40 | 48.99720 | 2.58064 | 368 ft | 142 kts | 85° |
| 2026-05-07 19:40 | 48.99816 | 2.59774 | 480 ft | 171 kts | 84° |
| 2026-05-07 19:40 | 48.99950 | 2.61513 | 1179 ft | 163 kts | 82° |
| 2026-05-07 19:40 | 49.00111 | 2.63274 | 1655 ft | 173 kts | 82° |
| 2026-05-07 19:41 | 49.00303 | 2.65149 | 2007 ft | 189 kts | 81° |
| 2026-05-07 19:41 | 49.00537 | 2.67250 | 2229 ft | 211 kts | 81° |
| 2026-05-07 19:41 | 49.00757 | 2.69585 | 2460 ft | 234 kts | 84° |
| 2026-05-07 19:41 | 49.00855 | 2.72149 | 2837 ft | 249 kts | 89° |
| 2026-05-07 19:42 | 49.00835 | 2.74835 | 3349 ft | 259 kts | 91° |
| 2026-05-07 19:42 | 49.00812 | 2.77610 | 3800 ft | 271 kts | 90° |
| 2026-05-07 19:42 | 49.00834 | 2.80474 | 4575 ft | 266 kts | 89° |
| 2026-05-07 19:42 | 49.00896 | 2.83249 | 5484 ft | 259 kts | 87° |
| 2026-05-07 19:43 | 49.00997 | 2.85954 | 6329 ft | 255 kts | 86° |
| 2026-05-07 19:43 | 49.01143 | 2.88789 | 6500 ft | 279 kts | 84° |
| 2026-05-07 19:43 | 49.01358 | 2.91787 | 6989 ft | 287 kts | 83° |
| 2026-05-07 19:43 | 49.01555 | 2.93774 | 7405 ft | 290 kts | 79° |
| 2026-05-07 19:44 | 49.01993 | 2.96827 | 8109 ft | 293 kts | 77° |
| 2026-05-07 19:44 | 49.02460 | 2.99845 | 8925 ft | 292 kts | 77° |
| 2026-05-07 19:44 | 49.02895 | 3.02870 | 9653 ft | 295 kts | 79° |
| 2026-05-07 19:44 | 49.03223 | 3.06003 | 10187 ft | 303 kts | 82° |
| 2026-05-07 19:45 | 49.03532 | 3.09266 | 10518 ft | 319 kts | 82° |
| 2026-05-07 19:45 | 49.03880 | 3.12683 | 10854 ft | 335 kts | 81° |
| 2026-05-07 19:45 | 49.04267 | 3.16272 | 11187 ft | 350 kts | 81° |
| 2026-05-07 19:45 | 49.04681 | 3.20006 | 11513 ft | 364 kts | 81° |
| 2026-05-07 19:46 | 49.05117 | 3.23887 | 11807 ft | 378 kts | 81° |
| 2026-05-07 19:46 | 49.05575 | 3.27945 | 12251 ft | 387 kts | 81° |
| 2026-05-07 19:46 | 49.06034 | 3.32015 | 12815 ft | 392 kts | 81° |
| 2026-05-07 19:46 | 49.06498 | 3.36136 | 13398 ft | 396 kts | 81° |
| 2026-05-07 19:47 | 49.06967 | 3.40304 | 13961 ft | 401 kts | 81° |
| 2026-05-07 19:47 | 49.07437 | 3.44500 | 14483 ft | 405 kts | 81° |
| 2026-05-07 19:47 | 49.07913 | 3.48758 | 15023 ft | 408 kts | 81° |
| 2026-05-07 19:47 | 49.08391 | 3.53053 | 15552 ft | 412 kts | 81° |
| 2026-05-07 19:48 | 49.08857 | 3.57373 | 16094 ft | 415 kts | 82° |
| 2026-05-07 19:48 | 49.09171 | 3.61777 | 16616 ft | 418 kts | 85° |
| 2026-05-07 19:48 | 49.09432 | 3.66163 | 17129 ft | 422 kts | 85° |
| 2026-05-07 19:48 | 49.09710 | 3.70703 | 17662 ft | 426 kts | 85° |
| 2026-05-07 19:49 | 49.10057 | 3.75155 | 18177 ft | 430 kts | 79° |
| 2026-05-07 19:49 | 49.10768 | 3.79601 | 18682 ft | 433 kts | 74° |
| 2026-05-07 19:49 | 49.11636 | 3.84027 | 19183 ft | 436 kts | 72° |
| 2026-05-07 19:49 | 49.12590 | 3.88442 | 19688 ft | 439 kts | 71° |
| 2026-05-07 19:50 | 49.13593 | 3.92871 | 20204 ft | 442 kts | 70° |
| 2026-05-07 19:50 | 49.14627 | 3.97366 | 20720 ft | 445 kts | 70° |
| 2026-05-07 19:50 | 49.15643 | 4.01788 | 21225 ft | 448 kts | 70° |
| 2026-05-07 19:50 | 49.16671 | 4.06301 | 21734 ft | 451 kts | 70° |
| 2026-05-07 19:51 | 49.17697 | 4.10846 | 22223 ft | 454 kts | 71° |
| 2026-05-07 19:51 | 49.18716 | 4.15395 | 22735 ft | 457 kts | 71° |
| 2026-05-07 19:51 | 49.19745 | 4.20013 | 23232 ft | 460 kts | 71° |
| 2026-05-07 19:51 | 49.20781 | 4.24680 | 23710 ft | 464 kts | 71° |
| 2026-05-07 19:52 | 49.21817 | 4.29363 | 24121 ft | 467 kts | 71° |
| 2026-05-07 19:52 | 49.22861 | 4.34089 | 24572 ft | 469 kts | 71° |
| 2026-05-07 19:52 | 49.23905 | 4.38827 | 25000 ft | 472 kts | 71° |
| 2026-05-07 19:52 | 49.24959 | 4.43618 | 25413 ft | 474 kts | 71° |
| 2026-05-07 19:53 | 49.25998 | 4.48355 | 25792 ft | 477 kts | 71° |
| 2026-05-07 19:53 | 49.27056 | 4.53184 | 26214 ft | 480 kts | 71° |
| 2026-05-07 19:53 | 49.28118 | 4.58045 | 26627 ft | 482 kts | 71° |
| 2026-05-07 19:53 | 49.29183 | 4.62928 | 27022 ft | 485 kts | 71° |
| 2026-05-07 19:54 | 49.30253 | 4.67848 | 27407 ft | 488 kts | 71° |
| 2026-05-07 19:54 | 49.31326 | 4.72792 | 27803 ft | 490 kts | 71° |
| 2026-05-07 19:54 | 49.32406 | 4.77785 | 28194 ft | 493 kts | 71° |
| 2026-05-07 19:54 | 49.33486 | 4.82785 | 28551 ft | 495 kts | 71° |
| 2026-05-07 19:55 | 49.34567 | 4.87807 | 28916 ft | 498 kts | 71° |
| 2026-05-07 19:55 | 49.35655 | 4.92870 | 29256 ft | 500 kts | 71° |
| 2026-05-07 19:55 | 49.36743 | 4.97943 | 29594 ft | 502 kts | 71° |
| 2026-05-07 19:55 | 49.37835 | 5.03053 | 29908 ft | 504 kts | 71° |
| 2026-05-07 19:56 | 49.38920 | 5.08139 | 30213 ft | 506 kts | 72° |
| 2026-05-07 19:56 | 49.40011 | 5.13271 | 30573 ft | 505 kts | 72° |
| 2026-05-07 19:56 | 49.41099 | 5.18395 | 30950 ft | 505 kts | 72° |
| 2026-05-07 19:56 | 49.42185 | 5.23530 | 31279 ft | 505 kts | 72° |
| 2026-05-07 19:57 | 49.43267 | 5.28656 | 31611 ft | 505 kts | 72° |
| 2026-05-07 19:57 | 49.44348 | 5.33789 | 31926 ft | 504 kts | 72° |
| 2026-05-07 19:57 | 49.45424 | 5.38912 | 32250 ft | 504 kts | 72° |
| 2026-05-07 19:57 | 49.46497 | 5.44031 | 32597 ft | 503 kts | 72° |
| 2026-05-07 19:58 | 49.47565 | 5.49143 | 32917 ft | 502 kts | 72° |
| 2026-05-07 19:58 | 49.48632 | 5.54263 | 33209 ft | 502 kts | 72° |
| 2026-05-07 19:58 | 49.49695 | 5.59375 | 33503 ft | 502 kts | 72° |
| 2026-05-07 19:58 | 49.50756 | 5.64495 | 33798 ft | 502 kts | 72° |
| 2026-05-07 19:59 | 49.51812 | 5.69600 | 34074 ft | 501 kts | 72° |
| 2026-05-07 19:59 | 49.52869 | 5.74723 | 34291 ft | 501 kts | 72° |
| 2026-05-07 19:59 | 49.53921 | 5.79836 | 34489 ft | 501 kts | 72° |
| 2026-05-07 19:59 | 49.54974 | 5.84964 | 34675 ft | 502 kts | 72° |
| 2026-05-07 20:00 | 49.56023 | 5.90088 | 34891 ft | 501 kts | 72° |
| 2026-05-07 20:00 | 49.57068 | 5.95208 | 35084 ft | 501 kts | 72° |
| 2026-05-07 20:00 | 49.58114 | 6.00340 | 35237 ft | 502 kts | 72° |
| 2026-05-07 20:00 | 49.59157 | 6.05476 | 35417 ft | 502 kts | 72° |
| 2026-05-07 20:01 | 49.60199 | 6.10620 | 35583 ft | 503 kts | 72° |
| 2026-05-07 20:01 | 49.61239 | 6.15769 | 35761 ft | 503 kts | 72° |
| 2026-05-07 20:01 | 49.62276 | 6.20942 | 35944 ft | 503 kts | 73° |
| 2026-05-07 20:01 | 49.63036 | 6.26215 | 36071 ft | 504 kts | 82° |
| 2026-05-07 20:02 | 49.63273 | 6.31601 | 36202 ft | 503 kts | 91° |
| 2026-05-07 20:02 | 49.63127 | 6.36973 | 36340 ft | 503 kts | 95° |
| 2026-05-07 20:02 | 49.62777 | 6.42369 | 36482 ft | 503 kts | 98° |
| 2026-05-07 20:02 | 49.62326 | 6.47721 | 36632 ft | 503 kts | 99° |
| 2026-05-07 20:03 | 49.61838 | 6.53070 | 36762 ft | 503 kts | 99° |
| 2026-05-07 20:03 | 49.61348 | 6.58421 | 36902 ft | 503 kts | 99° |
| 2026-05-07 20:03 | 49.60402 | 6.69152 | 36996 ft | 508 kts | 98° |
| 2026-05-07 20:04 | 49.59489 | 6.79929 | 37062 ft | 511 kts | 98° |
| 2026-05-07 20:04 | 49.58574 | 6.90800 | 37059 ft | 513 kts | 98° |
| 2026-05-07 20:05 | 49.57634 | 7.01837 | 37058 ft | 518 kts | 98° |
| 2026-05-07 20:05 | 49.56681 | 7.12876 | 37057 ft | 521 kts | 98° |
| 2026-05-07 20:06 | 49.55716 | 7.23913 | 37056 ft | 524 kts | 98° |
| 2026-05-07 20:06 | 49.54740 | 7.34949 | 37057 ft | 525 kts | 98° |
| 2026-05-07 20:07 | 49.53743 | 7.46096 | 37061 ft | 525 kts | 99° |
| 2026-05-07 20:07 | 49.52735 | 7.57252 | 37062 ft | 526 kts | 99° |
| 2026-05-07 20:08 | 49.51716 | 7.68399 | 37064 ft | 526 kts | 99° |
| 2026-05-07 20:08 | 49.50689 | 7.79509 | 37061 ft | 526 kts | 99° |
| 2026-05-07 20:09 | 49.49648 | 7.90654 | 37063 ft | 526 kts | 99° |
| 2026-05-07 20:10 | 49.48066 | 8.07362 | 37057 ft | 526 kts | 99° |
| 2026-05-07 20:10 | 49.47004 | 8.18441 | 37054 ft | 526 kts | 99° |
| 2026-05-07 20:11 | 49.45920 | 8.29620 | 37053 ft | 526 kts | 99° |
| 2026-05-07 20:11 | 49.44830 | 8.40749 | 37052 ft | 526 kts | 99° |
| 2026-05-07 20:12 | 49.43737 | 8.51801 | 37076 ft | 526 kts | 99° |
| 2026-05-07 20:12 | 49.42627 | 8.62912 | 37075 ft | 526 kts | 99° |
| 2026-05-07 20:13 | 49.41505 | 8.74023 | 37067 ft | 526 kts | 99° |
| 2026-05-07 20:13 | 49.40377 | 8.85088 | 37066 ft | 527 kts | 99° |
| 2026-05-07 20:14 | 49.39419 | 8.94403 | 37063 ft | 528 kts | 99° |
| 2026-05-07 20:14 | 49.38234 | 9.05832 | 37057 ft | 528 kts | 99° |
| 2026-05-07 20:15 | 49.37066 | 9.16974 | 37058 ft | 528 kts | 99° |
| 2026-05-07 20:15 | 49.35897 | 9.28016 | 37059 ft | 528 kts | 100° |
| 2026-05-07 20:16 | 49.34708 | 9.39150 | 37061 ft | 528 kts | 100° |
| 2026-05-07 20:16 | 49.33508 | 9.50270 | 37064 ft | 529 kts | 100° |
| 2026-05-07 20:17 | 49.32296 | 9.61406 | 37069 ft | 529 kts | 100° |
| 2026-05-07 20:17 | 49.31074 | 9.72530 | 37072 ft | 529 kts | 100° |
| 2026-05-07 20:18 | 49.29849 | 9.83576 | 37070 ft | 529 kts | 100° |
| 2026-05-07 20:18 | 49.28603 | 9.94711 | 37077 ft | 529 kts | 100° |
| 2026-05-07 20:19 | 49.27348 | 10.05831 | 37074 ft | 529 kts | 100° |
| 2026-05-07 20:19 | 49.26081 | 10.16948 | 37084 ft | 529 kts | 101° |
| 2026-05-07 20:20 | 49.24813 | 10.27987 | 37083 ft | 530 kts | 101° |
| 2026-05-07 20:20 | 49.23262 | 10.39012 | 37094 ft | 528 kts | 110° |
| 2026-05-07 20:21 | 49.20691 | 10.49545 | 37108 ft | 528 kts | 113° |
| 2026-05-07 20:21 | 49.17940 | 10.59877 | 37117 ft | 528 kts | 114° |
| 2026-05-07 20:22 | 49.15136 | 10.70251 | 37111 ft | 528 kts | 114° |
| 2026-05-07 20:22 | 49.12333 | 10.80637 | 37115 ft | 528 kts | 114° |
| 2026-05-07 20:23 | 49.09537 | 10.91007 | 37101 ft | 528 kts | 114° |
| 2026-05-07 20:23 | 49.06734 | 11.01365 | 37078 ft | 528 kts | 114° |
| 2026-05-07 20:24 | 49.03920 | 11.11718 | 37087 ft | 528 kts | 114° |
| 2026-05-07 20:24 | 49.01097 | 11.22057 | 37072 ft | 528 kts | 114° |
| 2026-05-07 20:25 | 48.98264 | 11.32386 | 37078 ft | 528 kts | 114° |
| 2026-05-07 20:25 | 48.95436 | 11.42648 | 37068 ft | 528 kts | 114° |
| 2026-05-07 20:26 | 48.92585 | 11.52954 | 37074 ft | 529 kts | 114° |
| 2026-05-07 20:26 | 48.89721 | 11.63259 | 37074 ft | 529 kts | 114° |
| 2026-05-07 20:27 | 48.86845 | 11.73563 | 37075 ft | 529 kts | 114° |
| 2026-05-07 20:27 | 48.83961 | 11.83851 | 37075 ft | 529 kts | 115° |
| 2026-05-07 20:28 | 48.81065 | 11.94136 | 37073 ft | 529 kts | 115° |
| 2026-05-07 20:28 | 48.78175 | 12.04359 | 37075 ft | 529 kts | 115° |
| 2026-05-07 20:29 | 48.75261 | 12.14620 | 37072 ft | 529 kts | 115° |
| 2026-05-07 20:29 | 48.72341 | 12.24858 | 37072 ft | 529 kts | 115° |
| 2026-05-07 20:30 | 48.69410 | 12.35091 | 37069 ft | 529 kts | 115° |
| 2026-05-07 20:30 | 48.66472 | 12.45306 | 37070 ft | 529 kts | 115° |
| 2026-05-07 20:31 | 48.63522 | 12.55517 | 37070 ft | 529 kts | 115° |
| 2026-05-07 20:31 | 48.60586 | 12.65640 | 37048 ft | 529 kts | 115° |
| 2026-05-07 20:32 | 48.57619 | 12.75827 | 37063 ft | 530 kts | 116° |
| 2026-05-07 20:32 | 48.54639 | 12.86014 | 37062 ft | 531 kts | 116° |
| 2026-05-07 20:33 | 48.51646 | 12.96204 | 37064 ft | 531 kts | 116° |
| 2026-05-07 20:33 | 48.48642 | 13.06389 | 37057 ft | 531 kts | 116° |
| 2026-05-07 20:34 | 48.45657 | 13.16465 | 37063 ft | 530 kts | 116° |
| 2026-05-07 20:34 | 48.42640 | 13.26609 | 37063 ft | 530 kts | 116° |
| 2026-05-07 20:35 | 48.39720 | 13.36819 | 37062 ft | 531 kts | 112° |
| 2026-05-07 20:35 | 48.37317 | 13.47346 | 37052 ft | 532 kts | 110° |
| 2026-05-07 20:36 | 48.34991 | 13.57910 | 37055 ft | 532 kts | 110° |
| 2026-05-07 20:36 | 48.32590 | 13.68383 | 37057 ft | 532 kts | 111° |
| 2026-05-07 20:37 | 48.30117 | 13.78879 | 37060 ft | 532 kts | 111° |
| 2026-05-07 20:37 | 48.27623 | 13.89347 | 37055 ft | 532 kts | 112° |
| 2026-05-07 20:38 | 48.25124 | 13.99799 | 37060 ft | 532 kts | 112° |
| 2026-05-07 20:38 | 48.22630 | 14.10195 | 37074 ft | 532 kts | 112° |
| 2026-05-07 20:39 | 48.20114 | 14.20635 | 37074 ft | 532 kts | 112° |
| 2026-05-07 20:39 | 48.17588 | 14.31067 | 37074 ft | 533 kts | 112° |
| 2026-05-07 20:40 | 48.15045 | 14.41521 | 37068 ft | 534 kts | 112° |
| 2026-05-07 20:40 | 48.12488 | 14.51981 | 37061 ft | 535 kts | 112° |
| 2026-05-07 20:41 | 48.09923 | 14.62427 | 37054 ft | 535 kts | 112° |
| 2026-05-07 20:41 | 48.07348 | 14.72864 | 37053 ft | 534 kts | 113° |
| 2026-05-07 20:42 | 48.04782 | 14.83218 | 37056 ft | 534 kts | 113° |
| 2026-05-07 20:42 | 48.02194 | 14.93606 | 37056 ft | 533 kts | 113° |
| 2026-05-07 20:43 | 47.99595 | 15.03997 | 37057 ft | 533 kts | 113° |
| 2026-05-07 20:43 | 47.97004 | 15.14305 | 37060 ft | 533 kts | 113° |
| 2026-05-07 20:44 | 47.94393 | 15.24648 | 37051 ft | 532 kts | 114° |
| 2026-05-07 20:44 | 47.91775 | 15.34970 | 37054 ft | 532 kts | 114° |
| 2026-05-07 20:45 | 47.89145 | 15.45293 | 37044 ft | 532 kts | 114° |
| 2026-05-07 20:45 | 47.86520 | 15.55549 | 37053 ft | 532 kts | 114° |
| 2026-05-07 20:46 | 47.83873 | 15.65845 | 37054 ft | 532 kts | 114° |
| 2026-05-07 20:46 | 47.81217 | 15.76129 | 37052 ft | 532 kts | 114° |
| 2026-05-07 20:47 | 47.78554 | 15.86397 | 37049 ft | 533 kts | 115° |
| 2026-05-07 20:47 | 47.75873 | 15.96683 | 37051 ft | 534 kts | 115° |
| 2026-05-07 20:48 | 47.73183 | 16.06959 | 37042 ft | 534 kts | 115° |
| 2026-05-07 20:48 | 47.70482 | 16.17235 | 37016 ft | 534 kts | 115° |
| 2026-05-07 20:49 | 47.67788 | 16.27440 | 37035 ft | 535 kts | 115° |
| 2026-05-07 20:49 | 47.65061 | 16.37723 | 37030 ft | 535 kts | 115° |
| 2026-05-07 20:50 | 47.62324 | 16.47999 | 37027 ft | 535 kts | 115° |
| 2026-05-07 20:50 | 47.59583 | 16.58243 | 37028 ft | 535 kts | 115° |
| 2026-05-07 20:51 | 47.56830 | 16.68488 | 37024 ft | 535 kts | 115° |
| 2026-05-07 20:51 | 47.54063 | 16.78739 | 37024 ft | 535 kts | 115° |
| 2026-05-07 20:52 | 47.51289 | 16.88970 | 37025 ft | 535 kts | 115° |
| 2026-05-07 20:52 | 47.48529 | 16.99112 | 37018 ft | 534 kts | 116° |
| 2026-05-07 20:53 | 47.45744 | 17.09296 | 37026 ft | 534 kts | 116° |
| 2026-05-07 20:53 | 47.42950 | 17.19471 | 37035 ft | 534 kts | 116° |
| 2026-05-07 20:54 | 47.40147 | 17.29633 | 37014 ft | 534 kts | 116° |
| 2026-05-07 20:54 | 47.37814 | 17.38061 | 37045 ft | 533 kts | 116° |
| 2026-05-07 20:55 | 47.34540 | 17.49840 | 37047 ft | 533 kts | 116° |
| 2026-05-07 20:55 | 47.31719 | 17.59939 | 37048 ft | 532 kts | 116° |
| 2026-05-07 20:56 | 47.29349 | 17.68390 | 37023 ft | 532 kts | 116° |
| 2026-05-07 20:56 | 47.26529 | 17.78409 | 37037 ft | 534 kts | 117° |
| 2026-05-07 20:57 | 47.23676 | 17.88503 | 37020 ft | 534 kts | 117° |
| 2026-05-07 20:57 | 47.20809 | 17.98603 | 37025 ft | 535 kts | 117° |
| 2026-05-07 20:58 | 47.17929 | 18.08708 | 37027 ft | 535 kts | 117° |
| 2026-05-07 20:58 | 47.15044 | 18.18789 | 37028 ft | 535 kts | 117° |
| 2026-05-07 20:59 | 47.12154 | 18.28846 | 37029 ft | 535 kts | 117° |
| 2026-05-07 20:59 | 47.09254 | 18.38896 | 37028 ft | 534 kts | 117° |
| 2026-05-07 21:00 | 47.06368 | 18.48859 | 37032 ft | 532 kts | 117° |
| 2026-05-07 21:00 | 47.03462 | 18.58848 | 37037 ft | 532 kts | 117° |
| 2026-05-07 21:01 | 47.00551 | 18.68809 | 37037 ft | 531 kts | 117° |
| 2026-05-07 21:01 | 46.97633 | 18.78758 | 37028 ft | 531 kts | 117° |
| 2026-05-07 21:02 | 46.94716 | 18.88663 | 37037 ft | 529 kts | 117° |
| 2026-05-07 21:02 | 46.91794 | 18.98546 | 37037 ft | 528 kts | 118° |
| 2026-05-07 21:03 | 46.88867 | 19.08402 | 37038 ft | 528 kts | 118° |
| 2026-05-07 21:03 | 46.85935 | 19.18238 | 37031 ft | 527 kts | 118° |
| 2026-05-07 21:04 | 46.82999 | 19.28053 | 37050 ft | 526 kts | 118° |
| 2026-05-07 21:04 | 46.80082 | 19.37763 | 37051 ft | 526 kts | 118° |
| 2026-05-07 21:05 | 46.77136 | 19.47527 | 37029 ft | 525 kts | 118° |
| 2026-05-07 21:05 | 46.74184 | 19.57279 | 37047 ft | 524 kts | 118° |
| 2026-05-07 21:06 | 46.71232 | 19.66989 | 37050 ft | 524 kts | 118° |
| 2026-05-07 21:06 | 46.68265 | 19.76712 | 37046 ft | 524 kts | 118° |
| 2026-05-07 21:07 | 46.65292 | 19.86420 | 37038 ft | 524 kts | 118° |
| 2026-05-07 21:07 | 46.62314 | 19.96103 | 37047 ft | 524 kts | 118° |
| 2026-05-07 21:08 | 46.59332 | 20.05764 | 37037 ft | 524 kts | 118° |
| 2026-05-07 21:08 | 46.56355 | 20.15370 | 37028 ft | 524 kts | 118° |
| 2026-05-07 21:09 | 46.53348 | 20.25038 | 37029 ft | 524 kts | 118° |
| 2026-05-07 21:09 | 46.50337 | 20.34683 | 37028 ft | 524 kts | 118° |
| 2026-05-07 21:10 | 46.47341 | 20.44243 | 37027 ft | 524 kts | 118° |
| 2026-05-07 21:10 | 46.44316 | 20.53858 | 37009 ft | 523 kts | 118° |
| 2026-05-07 21:11 | 46.41287 | 20.63450 | 37029 ft | 522 kts | 118° |
| 2026-05-07 21:11 | 46.36752 | 20.77748 | 37026 ft | 522 kts | 118° |
| 2026-05-07 21:12 | 46.33707 | 20.87298 | 37007 ft | 522 kts | 118° |
| 2026-05-07 21:12 | 46.30660 | 20.96823 | 37031 ft | 521 kts | 118° |
| 2026-05-07 21:13 | 46.27614 | 21.06311 | 37034 ft | 520 kts | 118° |
| 2026-05-07 21:13 | 46.24572 | 21.15819 | 37055 ft | 520 kts | 118° |
| 2026-05-07 21:14 | 46.21631 | 21.25314 | 37045 ft | 520 kts | 117° |
| 2026-05-07 21:14 | 46.18682 | 21.34858 | 37047 ft | 520 kts | 117° |
| 2026-05-07 21:15 | 46.15713 | 21.44381 | 37045 ft | 520 kts | 118° |
| 2026-05-07 21:15 | 46.12730 | 21.53881 | 37043 ft | 520 kts | 118° |
| 2026-05-07 21:16 | 46.09757 | 21.63307 | 37036 ft | 520 kts | 118° |
| 2026-05-07 21:16 | 46.06754 | 21.72792 | 37037 ft | 520 kts | 118° |
| 2026-05-07 21:17 | 46.03744 | 21.82269 | 37043 ft | 520 kts | 118° |
| 2026-05-07 21:17 | 46.00724 | 21.91741 | 37028 ft | 520 kts | 118° |
| 2026-05-07 21:18 | 45.97701 | 22.01189 | 37039 ft | 520 kts | 118° |
| 2026-05-07 21:18 | 45.94687 | 22.10575 | 37047 ft | 520 kts | 118° |
| 2026-05-07 21:19 | 45.91648 | 22.20002 | 37048 ft | 520 kts | 118° |
| 2026-05-07 21:19 | 45.88604 | 22.29414 | 37048 ft | 520 kts | 118° |
| 2026-05-07 21:20 | 45.85545 | 22.38833 | 37053 ft | 520 kts | 118° |
| 2026-05-07 21:20 | 45.82494 | 22.48196 | 37057 ft | 520 kts | 118° |
| 2026-05-07 21:21 | 45.79420 | 22.57596 | 37036 ft | 520 kts | 118° |
| 2026-05-07 21:21 | 45.76342 | 22.66975 | 37055 ft | 520 kts | 118° |
| 2026-05-07 21:22 | 45.73259 | 22.76333 | 37062 ft | 520 kts | 118° |
| 2026-05-07 21:22 | 45.70187 | 22.85628 | 37066 ft | 520 kts | 118° |
| 2026-05-07 21:23 | 45.67086 | 22.94974 | 37067 ft | 520 kts | 118° |
| 2026-05-07 21:23 | 45.63977 | 23.04312 | 37069 ft | 521 kts | 118° |
| 2026-05-07 21:24 | 45.60852 | 23.13667 | 37072 ft | 521 kts | 118° |
| 2026-05-07 21:24 | 45.57722 | 23.23001 | 37072 ft | 521 kts | 118° |
| 2026-05-07 21:25 | 45.54580 | 23.32337 | 37084 ft | 522 kts | 118° |
| 2026-05-07 21:25 | 45.51449 | 23.41610 | 37086 ft | 522 kts | 118° |
| 2026-05-07 21:26 | 45.48288 | 23.50938 | 37091 ft | 522 kts | 118° |
| 2026-05-07 21:26 | 45.45117 | 23.60263 | 37092 ft | 522 kts | 118° |
| 2026-05-07 21:27 | 45.41940 | 23.69572 | 37085 ft | 522 kts | 118° |
| 2026-05-07 21:27 | 45.38753 | 23.78876 | 37090 ft | 522 kts | 119° |
| 2026-05-07 21:28 | 45.35564 | 23.88156 | 37089 ft | 522 kts | 119° |
| 2026-05-07 21:28 | 45.32363 | 23.97439 | 37085 ft | 522 kts | 119° |
| 2026-05-07 21:29 | 45.29177 | 24.06647 | 37084 ft | 522 kts | 119° |
| 2026-05-07 21:29 | 45.25957 | 24.15916 | 37080 ft | 523 kts | 119° |
| 2026-05-07 21:30 | 45.22732 | 24.25170 | 37077 ft | 522 kts | 118° |
| 2026-05-07 21:30 | 45.19504 | 24.34403 | 37072 ft | 522 kts | 118° |
| 2026-05-07 21:31 | 45.16268 | 24.43629 | 37071 ft | 522 kts | 118° |
| 2026-05-07 21:31 | 45.13024 | 24.52844 | 37071 ft | 522 kts | 119° |
| 2026-05-07 21:32 | 45.09798 | 24.61974 | 37078 ft | 521 kts | 118° |
| 2026-05-07 21:32 | 45.06549 | 24.71142 | 37066 ft | 521 kts | 118° |
| 2026-05-07 21:33 | 45.03293 | 24.80295 | 37064 ft | 521 kts | 119° |
| 2026-05-07 21:33 | 45.00028 | 24.89442 | 37068 ft | 521 kts | 118° |
| 2026-05-07 21:34 | 44.96752 | 24.98591 | 37066 ft | 521 kts | 119° |
| 2026-05-07 21:34 | 44.93492 | 25.07665 | 37065 ft | 521 kts | 119° |
| 2026-05-07 21:35 | 44.90206 | 25.16781 | 37056 ft | 521 kts | 119° |
| 2026-05-07 21:35 | 44.86916 | 25.25877 | 37068 ft | 521 kts | 119° |
| 2026-05-07 21:36 | 44.83612 | 25.34978 | 37059 ft | 521 kts | 119° |
| 2026-05-07 21:36 | 44.80304 | 25.44063 | 37062 ft | 521 kts | 119° |
| 2026-05-07 21:37 | 44.76989 | 25.53138 | 37062 ft | 521 kts | 119° |
| 2026-05-07 21:37 | 44.73669 | 25.62197 | 37061 ft | 521 kts | 119° |
| 2026-05-07 21:38 | 44.70341 | 25.71245 | 37059 ft | 521 kts | 119° |
| 2026-05-07 21:38 | 44.67007 | 25.80282 | 37044 ft | 521 kts | 119° |
| 2026-05-07 21:39 | 44.63689 | 25.89245 | 37051 ft | 520 kts | 119° |
| 2026-05-07 21:39 | 44.60344 | 25.98252 | 37048 ft | 520 kts | 119° |
| 2026-05-07 21:40 | 44.56994 | 26.07241 | 37049 ft | 520 kts | 120° |
| 2026-05-07 21:40 | 44.53641 | 26.16210 | 37051 ft | 520 kts | 119° |
| 2026-05-07 21:41 | 44.50268 | 26.25205 | 37056 ft | 521 kts | 120° |
| 2026-05-07 21:41 | 44.46890 | 26.34182 | 37056 ft | 521 kts | 120° |
| 2026-05-07 21:42 | 44.44076 | 26.41640 | 37052 ft | 521 kts | 120° |
| 2026-05-07 21:42 | 44.40125 | 26.52076 | 37055 ft | 522 kts | 120° |
| 2026-05-07 21:43 | 44.37294 | 26.59528 | 37058 ft | 522 kts | 120° |
| 2026-05-07 21:43 | 44.33884 | 26.68480 | 37055 ft | 522 kts | 120° |
| 2026-05-07 21:44 | 44.30460 | 26.77441 | 37056 ft | 522 kts | 120° |
| 2026-05-07 21:44 | 44.27036 | 26.86371 | 37056 ft | 522 kts | 120° |
| 2026-05-07 21:45 | 44.23621 | 26.95251 | 37054 ft | 522 kts | 120° |
| 2026-05-07 21:45 | 44.20178 | 27.04176 | 37056 ft | 522 kts | 120° |
| 2026-05-07 21:46 | 44.16729 | 27.13086 | 37056 ft | 523 kts | 120° |
| 2026-05-07 21:46 | 44.13263 | 27.22012 | 37058 ft | 523 kts | 120° |
| 2026-05-07 21:47 | 44.09790 | 27.30929 | 37057 ft | 523 kts | 120° |
| 2026-05-07 21:47 | 44.06307 | 27.39840 | 37072 ft | 525 kts | 120° |
| 2026-05-07 21:48 | 44.02809 | 27.48764 | 37073 ft | 525 kts | 120° |
| 2026-05-07 21:48 | 43.99309 | 27.57665 | 37073 ft | 525 kts | 120° |
| 2026-05-07 21:49 | 43.95802 | 27.66555 | 37083 ft | 525 kts | 120° |
| 2026-05-07 21:49 | 43.92308 | 27.75384 | 37098 ft | 525 kts | 120° |
| 2026-05-07 21:50 | 43.88787 | 27.84254 | 37092 ft | 525 kts | 120° |
| 2026-05-07 21:50 | 43.85258 | 27.93116 | 37092 ft | 525 kts | 120° |
| 2026-05-07 21:51 | 43.81712 | 28.01994 | 37094 ft | 526 kts | 120° |
| 2026-05-07 21:51 | 43.78159 | 28.10859 | 37098 ft | 526 kts | 120° |
| 2026-05-07 21:52 | 43.74598 | 28.19719 | 37121 ft | 527 kts | 120° |
| 2026-05-07 21:52 | 43.71026 | 28.28579 | 37100 ft | 527 kts | 120° |
| 2026-05-07 21:53 | 43.67449 | 28.37422 | 37126 ft | 527 kts | 120° |
| 2026-05-07 21:53 | 43.63884 | 28.46209 | 37119 ft | 528 kts | 120° |
| 2026-05-07 21:54 | 43.60290 | 28.55042 | 37126 ft | 528 kts | 120° |
| 2026-05-07 21:54 | 43.56683 | 28.63876 | 37128 ft | 528 kts | 120° |
| 2026-05-07 21:55 | 43.53069 | 28.72703 | 37132 ft | 524 kts | 120° |
| 2026-05-07 21:55 | 43.49523 | 28.81338 | 37136 ft | 515 kts | 120° |
| 2026-05-07 21:56 | 43.45978 | 28.89942 | 37138 ft | 515 kts | 120° |
| 2026-05-07 21:56 | 43.42450 | 28.98479 | 37137 ft | 515 kts | 120° |
| 2026-05-07 21:57 | 43.38892 | 29.07066 | 37155 ft | 515 kts | 120° |
| 2026-05-07 21:57 | 43.35351 | 29.15584 | 37157 ft | 516 kts | 120° |
| 2026-05-07 21:58 | 43.31766 | 29.24184 | 37140 ft | 516 kts | 120° |
| 2026-05-07 21:58 | 43.28208 | 29.32693 | 37140 ft | 516 kts | 120° |
| 2026-05-07 21:59 | 43.24622 | 29.41245 | 37144 ft | 515 kts | 119° |
| 2026-05-07 21:59 | 43.21054 | 29.49727 | 37146 ft | 514 kts | 119° |
| 2026-05-07 22:00 | 43.17470 | 29.58224 | 37152 ft | 516 kts | 120° |
| 2026-05-07 22:00 | 43.13876 | 29.66720 | 37133 ft | 517 kts | 120° |
| 2026-05-07 22:01 | 43.10261 | 29.75241 | 37133 ft | 517 kts | 120° |
| 2026-05-07 22:01 | 43.06654 | 29.83717 | 37152 ft | 517 kts | 120° |
| 2026-05-07 22:02 | 43.03022 | 29.92226 | 37143 ft | 516 kts | 120° |
| 2026-05-07 22:02 | 42.99423 | 30.00634 | 37144 ft | 514 kts | 120° |
| 2026-05-07 22:03 | 42.95805 | 30.09063 | 37143 ft | 514 kts | 120° |
| 2026-05-07 22:03 | 42.92168 | 30.17512 | 37152 ft | 514 kts | 119° |
| 2026-05-07 22:04 | 42.88565 | 30.25856 | 37143 ft | 513 kts | 119° |
| 2026-05-07 22:04 | 42.84931 | 30.34250 | 37145 ft | 513 kts | 119° |
| 2026-05-07 22:05 | 42.81284 | 30.42650 | 37145 ft | 513 kts | 119° |
| 2026-05-07 22:05 | 42.77663 | 30.50966 | 37149 ft | 513 kts | 119° |
| 2026-05-07 22:06 | 42.74233 | 30.59502 | 37143 ft | 511 kts | 110° |
| 2026-05-07 22:06 | 42.72079 | 30.68660 | 37140 ft | 509 kts | 103° |
| 2026-05-07 22:07 | 42.70246 | 30.77980 | 37141 ft | 509 kts | 102° |
| 2026-05-07 22:07 | 42.68465 | 30.87266 | 37142 ft | 509 kts | 102° |
| 2026-05-07 22:08 | 42.66650 | 30.96581 | 37143 ft | 509 kts | 102° |
| 2026-05-07 22:08 | 42.64823 | 31.05824 | 37150 ft | 509 kts | 102° |
| 2026-05-07 22:09 | 42.62965 | 31.15152 | 37148 ft | 509 kts | 102° |
| 2026-05-07 22:09 | 42.61116 | 31.24392 | 37140 ft | 509 kts | 102° |
| 2026-05-07 22:10 | 42.59249 | 31.33683 | 37141 ft | 510 kts | 102° |
| 2026-05-07 22:10 | 42.57382 | 31.42930 | 37144 ft | 509 kts | 102° |
| 2026-05-07 22:11 | 42.55498 | 31.52223 | 37140 ft | 509 kts | 102° |
| 2026-05-07 22:11 | 42.53620 | 31.61445 | 37140 ft | 509 kts | 102° |
| 2026-05-07 22:12 | 42.51722 | 31.70720 | 37143 ft | 510 kts | 102° |
| 2026-05-07 22:12 | 42.49828 | 31.79939 | 37141 ft | 510 kts | 102° |
| 2026-05-07 22:13 | 42.47912 | 31.89217 | 37140 ft | 510 kts | 102° |
| 2026-05-07 22:13 | 42.46004 | 31.98415 | 37141 ft | 510 kts | 102° |
| 2026-05-07 22:14 | 42.44073 | 32.07687 | 37159 ft | 510 kts | 103° |
| 2026-05-07 22:14 | 42.42144 | 32.16906 | 37137 ft | 509 kts | 103° |
| 2026-05-07 22:15 | 42.40211 | 32.26101 | 37139 ft | 509 kts | 103° |
| 2026-05-07 22:15 | 42.38258 | 32.35352 | 37141 ft | 509 kts | 103° |
| 2026-05-07 22:16 | 42.36314 | 32.44519 | 37142 ft | 509 kts | 103° |
| 2026-05-07 22:16 | 42.34348 | 32.53749 | 37148 ft | 509 kts | 103° |
| 2026-05-07 22:17 | 42.32852 | 32.63018 | 37144 ft | 506 kts | 96° |
| 2026-05-07 22:17 | 42.31743 | 32.72434 | 37129 ft | 506 kts | 95° |
| 2026-05-07 22:18 | 42.30171 | 32.86515 | 37148 ft | 506 kts | 95° |
| 2026-05-07 22:19 | 42.29102 | 32.95920 | 37132 ft | 506 kts | 96° |
| 2026-05-07 22:19 | 42.28022 | 33.05269 | 37139 ft | 506 kts | 96° |
| 2026-05-07 22:20 | 42.26925 | 33.14682 | 37141 ft | 507 kts | 96° |
| 2026-05-07 22:20 | 42.25820 | 33.24092 | 37138 ft | 507 kts | 96° |
| 2026-05-07 22:21 | 42.24713 | 33.33462 | 37146 ft | 507 kts | 96° |
| 2026-05-07 22:21 | 42.23591 | 33.42886 | 37153 ft | 506 kts | 96° |
| 2026-05-07 22:22 | 42.22472 | 33.52215 | 37140 ft | 506 kts | 96° |
| 2026-05-07 22:22 | 42.21339 | 33.61600 | 37134 ft | 506 kts | 96° |
| 2026-05-07 22:23 | 42.20205 | 33.70921 | 37140 ft | 506 kts | 96° |
| 2026-05-07 22:23 | 42.19055 | 33.80315 | 37139 ft | 506 kts | 96° |
| 2026-05-07 22:24 | 42.17909 | 33.89623 | 37135 ft | 506 kts | 96° |
| 2026-05-07 22:24 | 42.16745 | 33.98994 | 37137 ft | 506 kts | 96° |
| 2026-05-07 22:25 | 42.15575 | 34.08359 | 37137 ft | 506 kts | 96° |
| 2026-05-07 22:25 | 42.14404 | 34.17673 | 37140 ft | 506 kts | 96° |
| 2026-05-07 22:26 | 42.13219 | 34.27028 | 37141 ft | 506 kts | 97° |
| 2026-05-07 22:26 | 42.12032 | 34.36334 | 37142 ft | 505 kts | 97° |
| 2026-05-07 22:27 | 42.10842 | 34.45603 | 37142 ft | 504 kts | 97° |
| 2026-05-07 22:27 | 42.09575 | 34.54912 | 37144 ft | 504 kts | 98° |
| 2026-05-07 22:28 | 42.08266 | 34.64207 | 37146 ft | 504 kts | 98° |
| 2026-05-07 22:28 | 42.06969 | 34.73421 | 37145 ft | 504 kts | 98° |
| 2026-05-07 22:29 | 42.05885 | 34.81135 | 37151 ft | 504 kts | 98° |
| 2026-05-07 22:29 | 42.04378 | 34.91938 | 37151 ft | 503 kts | 97° |
| 2026-05-07 22:30 | 42.03353 | 34.99642 | 37152 ft | 503 kts | 97° |
| 2026-05-07 22:30 | 42.02120 | 35.08927 | 37153 ft | 503 kts | 97° |
| 2026-05-07 22:31 | 42.00747 | 35.18182 | 37155 ft | 504 kts | 99° |
| 2026-05-07 22:31 | 41.99275 | 35.27375 | 37159 ft | 504 kts | 99° |
| 2026-05-07 22:32 | 41.97813 | 35.36538 | 37157 ft | 503 kts | 99° |
| 2026-05-07 22:32 | 41.96356 | 35.45757 | 37151 ft | 502 kts | 99° |
| 2026-05-07 22:33 | 41.94910 | 35.54909 | 37166 ft | 502 kts | 99° |
| 2026-05-07 22:33 | 41.93457 | 35.64059 | 37163 ft | 502 kts | 99° |
| 2026-05-07 22:34 | 41.91991 | 35.73235 | 37159 ft | 502 kts | 99° |
| 2026-05-07 22:34 | 41.90512 | 35.82440 | 37168 ft | 502 kts | 100° |
| 2026-05-07 22:35 | 41.89036 | 35.91574 | 37174 ft | 502 kts | 100° |
| 2026-05-07 22:35 | 41.87555 | 36.00694 | 37159 ft | 502 kts | 100° |
| 2026-05-07 22:36 | 41.86055 | 36.09876 | 37167 ft | 502 kts | 100° |
| 2026-05-07 22:36 | 41.84558 | 36.18993 | 37180 ft | 502 kts | 100° |
| 2026-05-07 22:37 | 41.83046 | 36.28151 | 37181 ft | 502 kts | 100° |
| 2026-05-07 22:37 | 41.81523 | 36.37331 | 37174 ft | 502 kts | 100° |
| 2026-05-07 22:38 | 41.80008 | 36.46415 | 37176 ft | 501 kts | 101° |
| 2026-05-07 22:38 | 41.78476 | 36.55549 | 37183 ft | 500 kts | 101° |
| 2026-05-07 22:39 | 41.76949 | 36.64613 | 37175 ft | 501 kts | 101° |
| 2026-05-07 22:39 | 41.75402 | 36.73744 | 37176 ft | 502 kts | 101° |
| 2026-05-07 22:40 | 41.73848 | 36.82869 | 37176 ft | 502 kts | 101° |
| 2026-05-07 22:40 | 41.72295 | 36.91943 | 37181 ft | 502 kts | 101° |
| 2026-05-07 22:41 | 41.70725 | 37.01068 | 37179 ft | 502 kts | 101° |
| 2026-05-07 22:41 | 41.69150 | 37.10181 | 37178 ft | 503 kts | 101° |
| 2026-05-07 22:42 | 41.67572 | 37.19256 | 37180 ft | 503 kts | 101° |
| 2026-05-07 22:42 | 41.65977 | 37.28389 | 37182 ft | 503 kts | 101° |
| 2026-05-07 22:43 | 41.64386 | 37.37457 | 37183 ft | 503 kts | 101° |
| 2026-05-07 22:43 | 41.62775 | 37.46584 | 37185 ft | 503 kts | 102° |
| 2026-05-07 22:44 | 41.61166 | 37.55657 | 37183 ft | 502 kts | 102° |
| 2026-05-07 22:44 | 41.59544 | 37.64765 | 37185 ft | 502 kts | 102° |
| 2026-05-07 22:45 | 41.57925 | 37.73806 | 37181 ft | 502 kts | 102° |
| 2026-05-07 22:45 | 41.56290 | 37.82897 | 37187 ft | 502 kts | 102° |
| 2026-05-07 22:46 | 41.54657 | 37.91933 | 37185 ft | 502 kts | 102° |
| 2026-05-07 22:46 | 41.53004 | 38.01032 | 37184 ft | 503 kts | 102° |
| 2026-05-07 22:47 | 41.51355 | 38.10065 | 37184 ft | 503 kts | 102° |
| 2026-05-07 22:47 | 41.49686 | 38.19160 | 37184 ft | 503 kts | 102° |
| 2026-05-07 22:48 | 41.48019 | 38.28207 | 37184 ft | 504 kts | 102° |
| 2026-05-07 22:48 | 41.46333 | 38.37312 | 37184 ft | 505 kts | 102° |
| 2026-05-07 22:49 | 41.44647 | 38.46374 | 37184 ft | 505 kts | 102° |
| 2026-05-07 22:49 | 41.42948 | 38.55459 | 37183 ft | 503 kts | 103° |
| 2026-05-07 22:50 | 41.41254 | 38.64481 | 37183 ft | 504 kts | 103° |
| 2026-05-07 22:50 | 41.39543 | 38.73549 | 37184 ft | 504 kts | 103° |
| 2026-05-07 22:51 | 41.37833 | 38.82567 | 37184 ft | 504 kts | 103° |
| 2026-05-07 22:51 | 41.36114 | 38.91592 | 37194 ft | 504 kts | 103° |
| 2026-05-07 22:52 | 41.34377 | 39.00668 | 37188 ft | 505 kts | 103° |
| 2026-05-07 22:52 | 41.32645 | 39.09677 | 37188 ft | 505 kts | 103° |
| 2026-05-07 22:53 | 41.30896 | 39.18734 | 37189 ft | 505 kts | 103° |
| 2026-05-07 22:53 | 41.29149 | 39.27736 | 37191 ft | 505 kts | 103° |
| 2026-05-07 22:54 | 41.27381 | 39.36808 | 37192 ft | 505 kts | 103° |
| 2026-05-07 22:54 | 41.25619 | 39.45808 | 37193 ft | 505 kts | 104° |
| 2026-05-07 22:55 | 41.23838 | 39.54861 | 37198 ft | 504 kts | 104° |
| 2026-05-07 22:55 | 41.22069 | 39.63818 | 37203 ft | 504 kts | 104° |
| 2026-05-07 22:56 | 41.20282 | 39.72821 | 37203 ft | 504 kts | 104° |
| 2026-05-07 22:56 | 41.18486 | 39.81831 | 37207 ft | 504 kts | 104° |
| 2026-05-07 22:57 | 41.16697 | 39.90767 | 37205 ft | 504 kts | 104° |
| 2026-05-07 22:57 | 41.14883 | 39.99786 | 37202 ft | 505 kts | 104° |
| 2026-05-07 22:58 | 41.13068 | 40.08769 | 37198 ft | 505 kts | 104° |
| 2026-05-07 22:58 | 41.11236 | 40.17801 | 37198 ft | 505 kts | 104° |
| 2026-05-07 22:59 | 41.09409 | 40.26765 | 37199 ft | 506 kts | 105° |
| 2026-05-07 22:59 | 41.07563 | 40.35785 | 37201 ft | 506 kts | 105° |
| 2026-05-07 23:00 | 41.05724 | 40.44732 | 37197 ft | 506 kts | 105° |
| 2026-05-07 23:00 | 41.03865 | 40.53735 | 37196 ft | 506 kts | 105° |
| 2026-05-07 23:01 | 41.01998 | 40.62738 | 37191 ft | 506 kts | 105° |
| 2026-05-07 23:01 | 41.00129 | 40.71714 | 37179 ft | 506 kts | 105° |
| 2026-05-07 23:02 | 40.98248 | 40.80711 | 37200 ft | 506 kts | 105° |
| 2026-05-07 23:02 | 40.96649 | 40.89724 | 37383 ft | 506 kts | 96° |
| 2026-05-07 23:02 | 40.96338 | 40.94385 | 37583 ft | 505 kts | 94° |
| 2026-05-07 23:03 | 40.96126 | 40.98980 | 37778 ft | 505 kts | 93° |
| 2026-05-07 23:03 | 40.95959 | 41.03645 | 37967 ft | 505 kts | 92° |
| 2026-05-07 23:03 | 40.95812 | 41.08291 | 38151 ft | 505 kts | 92° |
| 2026-05-07 23:03 | 40.95671 | 41.12887 | 38304 ft | 505 kts | 92° |
| 2026-05-07 23:04 | 40.95524 | 41.17527 | 38479 ft | 505 kts | 92° |
| 2026-05-07 23:04 | 40.95370 | 41.22181 | 38647 ft | 505 kts | 92° |
| 2026-05-07 23:04 | 40.95209 | 41.26841 | 38790 ft | 505 kts | 92° |
| 2026-05-07 23:05 | 40.94876 | 41.36112 | 38924 ft | 508 kts | 93° |
| 2026-05-07 23:05 | 40.94703 | 41.40789 | 39029 ft | 508 kts | 93° |
| 2026-05-07 23:05 | 40.94528 | 41.45461 | 39161 ft | 507 kts | 93° |
| 2026-05-07 23:06 | 40.94173 | 41.54790 | 39231 ft | 510 kts | 93° |
| 2026-05-07 23:06 | 40.93809 | 41.64204 | 39233 ft | 510 kts | 93° |
| 2026-05-07 23:07 | 40.93441 | 41.73542 | 39236 ft | 510 kts | 94° |
| 2026-05-07 23:07 | 40.93062 | 41.82938 | 39241 ft | 511 kts | 94° |
| 2026-05-07 23:08 | 40.92675 | 41.92331 | 39244 ft | 511 kts | 94° |
| 2026-05-07 23:08 | 40.92282 | 42.01706 | 39247 ft | 511 kts | 94° |
| 2026-05-07 23:09 | 40.91882 | 42.11056 | 39245 ft | 511 kts | 94° |
| 2026-05-07 23:09 | 40.91472 | 42.20475 | 39247 ft | 512 kts | 94° |
| 2026-05-07 23:10 | 40.91055 | 42.29841 | 39245 ft | 513 kts | 94° |
| 2026-05-07 23:10 | 40.90628 | 42.39289 | 39250 ft | 512 kts | 94° |
| 2026-05-07 23:11 | 40.90197 | 42.48646 | 39252 ft | 512 kts | 94° |
| 2026-05-07 23:11 | 40.89756 | 42.58067 | 39253 ft | 513 kts | 95° |
| 2026-05-07 23:12 | 40.89306 | 42.67496 | 39250 ft | 513 kts | 95° |
| 2026-05-07 23:12 | 40.88850 | 42.76898 | 39250 ft | 513 kts | 95° |
| 2026-05-07 23:13 | 40.88388 | 42.86269 | 39253 ft | 513 kts | 95° |
| 2026-05-07 23:13 | 40.87915 | 42.95720 | 39243 ft | 513 kts | 95° |
| 2026-05-07 23:14 | 40.87433 | 43.05164 | 39238 ft | 515 kts | 95° |
| 2026-05-07 23:14 | 40.86945 | 43.14573 | 39232 ft | 516 kts | 96° |
| 2026-05-07 23:15 | 40.86447 | 43.24046 | 39230 ft | 516 kts | 96° |
| 2026-05-07 23:15 | 40.85945 | 43.33452 | 39224 ft | 515 kts | 96° |
| 2026-05-07 23:16 | 40.85518 | 43.41324 | 39219 ft | 515 kts | 96° |
| 2026-05-07 23:16 | 40.84912 | 43.52343 | 39216 ft | 515 kts | 96° |
| 2026-05-07 23:17 | 40.84473 | 43.60215 | 39216 ft | 515 kts | 96° |
| 2026-05-07 23:17 | 40.83941 | 43.69623 | 39213 ft | 515 kts | 96° |
| 2026-05-07 23:18 | 40.83572 | 43.79081 | 39210 ft | 517 kts | 94° |
| 2026-05-07 23:18 | 40.83314 | 43.88610 | 39214 ft | 518 kts | 94° |
| 2026-05-07 23:19 | 40.83032 | 43.98093 | 39213 ft | 519 kts | 95° |
| 2026-05-07 23:19 | 40.82713 | 44.07632 | 39216 ft | 519 kts | 95° |
| 2026-05-07 23:20 | 40.82378 | 44.17127 | 39214 ft | 519 kts | 95° |
| 2026-05-07 23:20 | 40.82034 | 44.26613 | 39214 ft | 520 kts | 95° |
| 2026-05-07 23:21 | 40.81680 | 44.36193 | 39212 ft | 521 kts | 95° |
| 2026-05-07 23:21 | 40.81322 | 44.45701 | 39210 ft | 520 kts | 95° |
| 2026-05-07 23:22 | 40.80953 | 44.55283 | 39212 ft | 521 kts | 95° |
| 2026-05-07 23:22 | 40.80582 | 44.64772 | 39202 ft | 521 kts | 96° |
| 2026-05-07 23:23 | 40.80195 | 44.74373 | 39207 ft | 523 kts | 96° |
| 2026-05-07 23:23 | 40.79802 | 44.83940 | 39203 ft | 523 kts | 96° |
| 2026-05-07 23:24 | 40.79399 | 44.93563 | 39204 ft | 523 kts | 96° |
| 2026-05-07 23:24 | 40.78991 | 45.03128 | 39197 ft | 523 kts | 96° |
| 2026-05-07 23:25 | 40.78576 | 45.12693 | 39191 ft | 525 kts | 96° |
| 2026-05-07 23:25 | 40.78149 | 45.22333 | 39192 ft | 525 kts | 96° |
| 2026-05-07 23:26 | 40.77713 | 45.31968 | 39187 ft | 525 kts | 96° |
| 2026-05-07 23:26 | 40.77273 | 45.41541 | 39188 ft | 525 kts | 96° |
| 2026-05-07 23:27 | 40.77478 | 45.56020 | 39180 ft | 530 kts | 86° |
| 2026-05-07 23:27 | 40.78423 | 45.65695 | 39179 ft | 531 kts | 85° |
| 2026-05-07 23:28 | 40.79443 | 45.75306 | 39175 ft | 531 kts | 85° |
| 2026-05-07 23:28 | 40.80456 | 45.84994 | 39170 ft | 531 kts | 85° |
| 2026-05-07 23:29 | 40.81438 | 45.94625 | 39166 ft | 531 kts | 85° |
| 2026-05-07 23:29 | 40.82410 | 46.04305 | 39166 ft | 531 kts | 85° |
| 2026-05-07 23:30 | 40.83370 | 46.13964 | 39165 ft | 532 kts | 85° |
| 2026-05-07 23:30 | 40.84327 | 46.23675 | 39163 ft | 532 kts | 85° |
| 2026-05-07 23:31 | 40.85277 | 46.33388 | 39161 ft | 533 kts | 85° |
| 2026-05-07 23:31 | 40.86215 | 46.43054 | 39159 ft | 533 kts | 86° |
| 2026-05-07 23:32 | 40.87146 | 46.52747 | 39164 ft | 533 kts | 86° |
| 2026-05-07 23:32 | 40.88074 | 46.62484 | 39159 ft | 533 kts | 86° |
| 2026-05-07 23:33 | 40.88988 | 46.72170 | 39161 ft | 535 kts | 86° |
| 2026-05-07 23:33 | 40.89255 | 46.81964 | 39158 ft | 528 kts | 101° |
| 2026-05-07 23:34 | 40.87503 | 46.91223 | 39155 ft | 519 kts | 113° |
| 2026-05-07 23:34 | 40.85080 | 47.00224 | 39156 ft | 518 kts | 115° |
| 2026-05-07 23:35 | 40.82565 | 47.09130 | 39157 ft | 518 kts | 115° |
| 2026-05-07 23:35 | 40.80072 | 47.18018 | 39152 ft | 519 kts | 115° |
| 2026-05-07 23:36 | 40.77564 | 47.26982 | 39154 ft | 519 kts | 115° |
| 2026-05-07 23:36 | 40.75069 | 47.35868 | 39135 ft | 518 kts | 115° |
| 2026-05-07 23:37 | 40.72561 | 47.44806 | 39154 ft | 518 kts | 115° |
| 2026-05-07 23:37 | 40.70063 | 47.53694 | 39159 ft | 518 kts | 115° |
| 2026-05-07 23:38 | 40.67565 | 47.62546 | 39153 ft | 517 kts | 115° |
| 2026-05-07 23:38 | 40.65041 | 47.71458 | 39151 ft | 517 kts | 115° |
| 2026-05-07 23:39 | 40.62530 | 47.80297 | 39151 ft | 517 kts | 116° |
| 2026-05-07 23:39 | 40.60003 | 47.89197 | 39149 ft | 518 kts | 115° |
| 2026-05-07 23:40 | 40.58574 | 47.98560 | 39145 ft | 530 kts | 96° |
| 2026-05-07 23:40 | 40.58609 | 48.08258 | 39135 ft | 533 kts | 92° |
| 2026-05-07 23:41 | 40.58912 | 48.18056 | 39148 ft | 534 kts | 91° |
| 2026-05-07 23:41 | 40.59227 | 48.27780 | 39149 ft | 534 kts | 91° |
| 2026-05-07 23:42 | 40.59495 | 48.37597 | 39154 ft | 534 kts | 92° |
| 2026-05-07 23:42 | 40.59736 | 48.47333 | 39140 ft | 534 kts | 92° |
| 2026-05-07 23:43 | 40.59965 | 48.57139 | 39161 ft | 535 kts | 92° |
| 2026-05-07 23:43 | 40.60189 | 48.66889 | 39166 ft | 535 kts | 92° |
| 2026-05-07 23:44 | 40.60406 | 48.76650 | 39165 ft | 536 kts | 92° |
| 2026-05-07 23:44 | 40.60616 | 48.86484 | 39163 ft | 535 kts | 92° |
| 2026-05-07 23:45 | 40.60816 | 48.96263 | 39162 ft | 536 kts | 92° |
| 2026-05-07 23:45 | 40.61008 | 49.06091 | 39142 ft | 537 kts | 92° |
| 2026-05-07 23:46 | 40.61191 | 49.15855 | 39150 ft | 537 kts | 92° |
| 2026-05-07 23:46 | 40.61465 | 49.25716 | 39132 ft | 539 kts | 90° |
| 2026-05-07 23:47 | 40.62078 | 49.35526 | 39120 ft | 540 kts | 88° |
| 2026-05-07 23:47 | 40.62727 | 49.45397 | 39115 ft | 540 kts | 89° |
| 2026-05-07 23:48 | 40.63312 | 49.55199 | 39089 ft | 539 kts | 89° |
| 2026-05-07 23:48 | 40.63861 | 49.65069 | 39108 ft | 541 kts | 89° |
| 2026-05-07 23:49 | 40.64394 | 49.74926 | 39098 ft | 541 kts | 89° |
| 2026-05-07 23:49 | 40.64923 | 49.84836 | 39091 ft | 542 kts | 90° |
| 2026-05-07 23:50 | 40.65446 | 49.94756 | 39086 ft | 541 kts | 90° |
| 2026-05-07 23:50 | 40.65957 | 50.04600 | 39085 ft | 541 kts | 90° |
| 2026-05-07 23:51 | 40.66465 | 50.14539 | 39071 ft | 541 kts | 90° |
| 2026-05-07 23:51 | 40.66959 | 50.24394 | 39093 ft | 543 kts | 90° |
| 2026-05-07 23:52 | 40.67449 | 50.34347 | 39094 ft | 544 kts | 90° |
| 2026-05-07 23:52 | 40.67930 | 50.44259 | 39111 ft | 544 kts | 90° |
| 2026-05-07 23:53 | 40.68405 | 50.54239 | 39110 ft | 543 kts | 90° |
| 2026-05-07 23:53 | 40.68866 | 50.64138 | 39113 ft | 543 kts | 90° |
| 2026-05-07 23:54 | 40.69322 | 50.74110 | 39103 ft | 543 kts | 90° |
| 2026-05-07 23:54 | 40.69766 | 50.84035 | 39112 ft | 545 kts | 91° |
| 2026-05-07 23:55 | 40.70206 | 50.94034 | 39114 ft | 545 kts | 91° |
| 2026-05-07 23:55 | 40.70636 | 51.03987 | 39114 ft | 546 kts | 91° |
| 2026-05-07 23:56 | 40.71060 | 51.14001 | 39116 ft | 546 kts | 91° |
| 2026-05-07 23:56 | 40.71472 | 51.23955 | 39114 ft | 546 kts | 91° |
| 2026-05-07 23:57 | 40.71878 | 51.33978 | 39117 ft | 547 kts | 91° |
| 2026-05-07 23:57 | 40.72274 | 51.43984 | 39119 ft | 550 kts | 91° |
| 2026-05-07 23:58 | 40.73222 | 51.54016 | 39118 ft | 555 kts | 82° |
| 2026-05-07 23:58 | 40.74795 | 51.64046 | 39121 ft | 556 kts | 81° |
| 2026-05-07 23:59 | 40.76451 | 51.73971 | 39118 ft | 556 kts | 81° |
| 2026-05-07 23:59 | 40.78109 | 51.83967 | 39123 ft | 556 kts | 81° |
| 2026-05-08 00:00 | 40.79731 | 51.93904 | 39120 ft | 556 kts | 81° |
| 2026-05-08 00:00 | 40.81347 | 52.03908 | 39120 ft | 557 kts | 81° |
| 2026-05-08 00:01 | 40.82955 | 52.13934 | 39112 ft | 558 kts | 81° |
| 2026-05-08 00:01 | 40.84548 | 52.23915 | 39118 ft | 559 kts | 81° |
| 2026-05-08 00:02 | 40.86147 | 52.33996 | 39117 ft | 559 kts | 81° |
| 2026-05-08 00:02 | 40.87737 | 52.44072 | 39116 ft | 559 kts | 81° |
| 2026-05-08 00:03 | 40.89309 | 52.54096 | 39115 ft | 559 kts | 81° |
| 2026-05-08 00:03 | 40.90449 | 52.64187 | 39116 ft | 555 kts | 89° |
| 2026-05-08 00:04 | 40.90904 | 52.72674 | 39115 ft | 554 kts | 90° |
| 2026-05-08 00:04 | 40.91334 | 52.82882 | 39114 ft | 554 kts | 91° |
| 2026-05-08 00:05 | 40.91739 | 52.93064 | 39113 ft | 555 kts | 91° |
| 2026-05-08 00:05 | 40.92147 | 53.03223 | 39114 ft | 555 kts | 91° |
| 2026-05-08 00:06 | 40.92555 | 53.13397 | 39117 ft | 555 kts | 91° |
| 2026-05-08 00:06 | 40.92951 | 53.23610 | 39106 ft | 556 kts | 91° |
| 2026-05-08 00:07 | 40.93330 | 53.33807 | 39112 ft | 556 kts | 91° |
| 2026-05-08 00:07 | 40.93701 | 53.44048 | 39106 ft | 555 kts | 91° |
| 2026-05-08 00:08 | 40.94062 | 53.54208 | 39103 ft | 556 kts | 91° |
| 2026-05-08 00:08 | 40.94418 | 53.64446 | 39106 ft | 556 kts | 91° |
| 2026-05-08 00:09 | 40.94763 | 53.74632 | 39104 ft | 556 kts | 91° |
| 2026-05-08 00:09 | 40.95098 | 53.84796 | 39093 ft | 555 kts | 91° |
| 2026-05-08 00:10 | 40.95425 | 53.94988 | 39101 ft | 555 kts | 91° |
| 2026-05-08 00:10 | 40.95744 | 54.05220 | 39100 ft | 555 kts | 91° |
| 2026-05-08 00:11 | 40.96052 | 54.15389 | 39101 ft | 555 kts | 91° |
| 2026-05-08 00:11 | 40.96352 | 54.25599 | 39103 ft | 555 kts | 91° |
| 2026-05-08 00:12 | 40.96644 | 54.35849 | 39100 ft | 555 kts | 91° |
| 2026-05-08 00:12 | 40.96926 | 54.46042 | 39099 ft | 555 kts | 91° |
| 2026-05-08 00:13 | 40.97199 | 54.56223 | 39102 ft | 555 kts | 92° |
| 2026-05-08 00:13 | 40.97464 | 54.66457 | 39102 ft | 555 kts | 92° |
| 2026-05-08 00:14 | 40.97718 | 54.76642 | 39093 ft | 555 kts | 92° |
| 2026-05-08 00:14 | 40.97964 | 54.86848 | 39103 ft | 556 kts | 92° |
| 2026-05-08 00:15 | 40.98203 | 54.97103 | 39104 ft | 556 kts | 92° |
| 2026-05-08 00:15 | 40.98419 | 55.07366 | 39105 ft | 556 kts | 92° |
| 2026-05-08 00:16 | 40.98623 | 55.17554 | 39105 ft | 557 kts | 92° |
| 2026-05-08 00:16 | 40.98823 | 55.27833 | 39105 ft | 557 kts | 92° |
| 2026-05-08 00:17 | 40.99015 | 55.38052 | 39095 ft | 557 kts | 92° |
| 2026-05-08 00:17 | 40.99199 | 55.48365 | 39100 ft | 558 kts | 92° |
| 2026-05-08 00:18 | 40.99372 | 55.58616 | 39096 ft | 558 kts | 92° |
| 2026-05-08 00:18 | 40.99537 | 55.68856 | 39097 ft | 559 kts | 92° |
| 2026-05-08 00:19 | 40.99695 | 55.79188 | 39091 ft | 559 kts | 92° |
| 2026-05-08 00:19 | 40.99860 | 55.89432 | 39091 ft | 559 kts | 92° |
| 2026-05-08 00:20 | 41.00022 | 55.99743 | 39080 ft | 559 kts | 92° |
| 2026-05-08 00:20 | 41.00173 | 56.09980 | 39085 ft | 559 kts | 92° |
| 2026-05-08 00:21 | 41.00292 | 56.18570 | 39085 ft | 559 kts | 92° |